Main page
METAR-TAF:

METAR-TAF

Airports :

Mineral Wells Airport

Mineral Wells, Texas, United States

latitude: 32-46-54N, longitude: 098-03-37W, elevation: 974 ft

Current weather observation

The report was made 51 minutes ago, at 08:53 UTC
Wind 6 mph from the South/Southeast
Temperature 79°F
Humidity 79%
Pressure 29.89 in. Hg
Visibility: 10 miles
Clear sky

METAR: KMWL 250853Z AUTO 16005KT 10SM CLR 26/22 A2989 RMK AO2 SLP105 T02560222 58004

Time: 04:44 (09:44 UTC)


TAF: missing

Weather observations and forecasts of more than 4000 airports (METAR and TAF reports).

The available stations are represented by yellow and red dots on the map.

Hover mouse over dot to see the name of the station.

Then click to see weather observations and forecasts.

To change the map : click on the green buttons with a black cross to zoom in, on the green button with a dash to zoom out, or on the green arrows for adjacent maps.


METAR-TAF: